Time;durP1;ratioP1;P1;durP2;ratioP2;P2;SDS_P1;SDS_P2;PMS_P1;PMS_P2;Temp;Humidity;BMP_temperature;BMP_pressure;BME280_temperature;BME280_humidity;BME280_pressure;Samples;Min_cycle;Max_cycle;Signal;HPM_P1;HPM_P2
2022/03/10 00:07:48;;;;;;;;;;;;;;;;;;;;;
2022/03/10 00:36:14;;;;;;;;;;;;;;;;;;;;;
2022/03/10 01:12:47;;;;;;;;;32.50;25.50;;;;;;;;2;261077186;261077186;-80
2022/03/10 01:21:03;;;;;;;;;33.00;22.00;;;;;;;;2;261072418;261072418;-79
2022/03/10 01:30:05;;;;;;;;;27.50;27.50;;;;;;;;2;261074337;261074337;-79
2022/03/10 01:38:20;;;;;;;;;22.00;19.00;;;;;;;;2;261078166;261078166;-80
2022/03/10 01:47:22;;;;;;;;;42.00;30.00;;;;;;;;2;261076677;261076677;-80
2022/03/10 01:55:40;;;;;;;;;33.50;25.50;;;;;;;;2;261075636;261075636;-80
2022/03/10 02:05:10;;;;;;;;;;;;;;;;;;;;;
2022/03/10 02:23:58;;;;;;;;;;;;;;;;;;;;;
2022/03/10 02:32:23;;;;;;;;;;;;;;;;;;;;;
2022/03/10 02:50:43;;;;;;;;;25.50;25.50;;;;;;;;2;261076353;261076353;-80
2022/03/10 02:59:52;;;;;;;;;25.50;25.00;;;;;;;;2;261079863;261079863;-80
2022/03/10 03:18:19;;;;;;;;;;;;;;;;;;;;;
2022/03/10 03:27:25;;;;;;;;;;;;;;;;;;;;;
2022/03/10 03:55:22;;;;;;;;;;;;;;;;;;;;;
2022/03/10 04:04:26;;;;;;;;;30.50;21.50;;;;;;;;2;261105540;261105540;-81
2022/03/10 04:13:45;;;;;;;;;;;;;;;;;;;;;
2022/03/10 04:22:40;;;;;;;;;;;;;;;;;;;;;
2022/03/10 04:41:18;;;;;;;;;;;;;;;;;;;;;
2022/03/10 04:50:25;;;;;;;;;;;;;;;;;;;;;
2022/03/10 04:59:32;;;;;;;;;;;;;;;;;;;;;
2022/03/10 05:08:58;;;;;;;;;;;;;;;;;;;;;
2022/03/10 05:27:05;;;;;;;;;;;;;;;;;;;;;
2022/03/10 05:35:53;;;;;;;;;;;;;;;;;;;;;
2022/03/10 05:45:20;;;;;;;;;;;;;;;;;;;;;
2022/03/10 06:03:42;;;;;;;;;25.50;24.00;;;;;;;;2;261078474;261078474;-79
2022/03/10 06:12:01;;;;;;;;;19.50;19.50;;;;;;;;2;261074713;261074713;-80
2022/03/10 06:30:17;;;;;;;;;49.50;27.50;;;;;;;;2;261077585;261077585;-80
2022/03/10 06:39:18;;;;;;;;;22.00;22.00;;;;;;;;2;261083277;261083277;-82
2022/03/10 06:47:33;;;;;;;;;28.00;28.00;;;;;;;;2;261083374;261083374;-86
2022/03/10 06:56:34;;;;;;;;;26.50;23.00;;;;;;;;2;261083402;261083402;-86
2022/03/10 07:04:49;;;;;;;;;29.00;26.00;;;;;;;;2;261077822;261077822;-86
2022/03/10 07:13:50;;;;;;;;;21.50;18.00;;;;;;;;2;261084010;261084010;-86
2022/03/10 07:22:07;;;;;;;;;32.00;20.00;;;;;;;;2;261080178;261080178;-84
2022/03/10 07:31:33;;;;;;;;;34.50;26.00;;;;;;;;2;261081958;261081958;-86
2022/03/10 07:39:49;;;;;;;;;28.50;28.50;;;;;;;;2;261082724;261082724;-85
2022/03/10 07:48:50;;;;;;;;;38.00;31.50;;;;;;;;2;261082173;261082173;-83
2022/03/10 07:57:05;;;;;;;;;30.50;29.00;;;;;;;;2;261080761;261080761;-83
2022/03/10 08:06:06;;;;;;;;;41.50;26.00;;;;;;;;2;261082284;261082284;-82
2022/03/10 08:14:22;;;;;;;;;25.00;23.50;;;;;;;;2;261078016;261078016;-83
2022/03/10 08:23:22;;;;;;;;;56.00;29.50;;;;;;;;2;261080237;261080237;-83
2022/03/10 08:31:37;;;;;;;;;31.00;26.50;;;;;;;;2;261081208;261081208;-83
2022/03/10 08:40:39;;;;;;;;;24.50;24.50;;;;;;;;2;261084146;261084146;-84
2022/03/10 08:48:54;;;;;;;;;33.50;28.00;;;;;;;;2;261081064;261081064;-84
2022/03/10 08:57:55;;;;;;;;;34.50;23.00;;;;;;;;2;261081237;261081237;-84
2022/03/10 09:06:12;;;;;;;;;35.00;26.00;;;;;;;;2;261082947;261082947;-84
2022/03/10 09:15:12;;;;;;;;;9.50;9.50;;;;;;;;2;261082803;261082803;-84
2022/03/10 09:23:28;;;;;;;;;29.50;21.50;;;;;;;;2;261080572;261080572;-84
2022/03/10 09:32:35;;;;;;;;;29.50;29.50;;;;;;;;2;261076267;261076267;-85
2022/03/10 09:40:53;;;;;;;;;19.00;19.00;;;;;;;;2;261081238;261081238;-85
2022/03/10 09:49:54;;;;;;;;;20.50;20.50;;;;;;;;2;261082511;261082511;-85
2022/03/10 09:58:10;;;;;;;;;20.50;20.50;;;;;;;;2;261078705;261078705;-85
2022/03/10 10:07:11;;;;;;;;;17.50;15.50;;;;;;;;2;261081070;261081070;-85
2022/03/10 10:15:31;;;;;;;;;27.50;23.50;;;;;;;;2;261083415;261083415;-84
2022/03/10 10:24:32;;;;;;;;;33.00;22.00;;;;;;;;2;261080182;261080182;-84
2022/03/10 10:32:55;;;;;;;;;19.50;19.50;;;;;;;;2;261082679;261082679;-85
2022/03/10 10:41:56;;;;;;;;;34.00;22.00;;;;;;;;2;261077822;261077822;-85
2022/03/10 10:50:11;;;;;;;;;24.00;24.00;;;;;;;;2;261079829;261079829;-84
2022/03/10 10:59:30;;;;;;;;;23.00;18.00;;;;;;;;2;261079040;261079040;-84
2022/03/10 11:07:47;;;;;;;;;29.00;17.50;;;;;;;;2;261081314;261081314;-85
2022/03/10 11:16:48;;;;;;;;;17.50;17.50;;;;;;;;2;261081866;261081866;-85
2022/03/10 11:25:03;;;;;;;;;15.00;15.00;;;;;;;;2;261076287;261076287;-85
2022/03/10 11:34:03;;;;;;;;;20.00;11.50;;;;;;;;2;261079473;261079473;-85
2022/03/10 11:42:26;;;;;;;;;15.00;15.00;;;;;;;;2;261080185;261080185;-85
2022/03/10 11:51:43;;;;;;;;;16.00;16.00;;;;;;;;2;261083198;261083198;-86
2022/03/10 11:59:59;;;;;;;;;20.50;20.50;;;;;;;;2;261081656;261081656;-85
2022/03/10 12:09:06;;;;;;;;;15.50;15.50;;;;;;;;2;261081417;261081417;-85
2022/03/10 12:17:40;;;;;;;;;13.50;13.50;;;;;;;;2;261085288;261085288;-84
2022/03/10 12:26:45;;;;;;;;;11.50;11.50;;;;;;;;2;261081806;261081806;-85
2022/03/10 12:35:02;;;;;;;;;7.50;7.50;;;;;;;;2;261088842;261088842;-84
2022/03/10 12:44:13;;;;;;;;;19.50;7.50;;;;;;;;2;261080249;261080249;-84
2022/03/10 12:52:40;;;;;;;;;;;;;;;;;;;;;
2022/03/10 13:01:41;;;;;;;;;22.50;10.50;;;;;;;;2;261109565;261109565;-84
2022/03/10 13:09:57;;;;;;;;;6.00;6.00;;;;;;;;2;261078569;261078569;-84
2022/03/10 13:18:58;;;;;;;;;10.50;10.50;;;;;;;;2;261076192;261076192;-84
2022/03/10 13:27:15;;;;;;;;;13.00;13.00;;;;;;;;2;261076896;261076896;-85
2022/03/10 13:36:15;;;;;;;;;11.50;11.50;;;;;;;;2;261077973;261077973;-85
2022/03/10 13:44:31;;;;;;;;;18.00;6.00;;;;;;;;2;261079536;261079536;-84
2022/03/10 13:53:31;;;;;;;;;4.50;4.50;;;;;;;;2;261081315;261081315;-85
2022/03/10 14:02:28;;;;;;;;;12.50;8.50;;;;;;;;2;261081208;261081208;-84
2022/03/10 14:11:42;;;;;;;;;19.50;7.50;;;;;;;;2;261083260;261083260;-85
2022/03/10 14:29:42;;;;;;;;;11.50;11.50;;;;;;;;2;261083884;261083884;-86
2022/03/10 14:37:58;;;;;;;;;8.00;8.00;;;;;;;;2;261084060;261084060;-84
2022/03/10 14:46:58;;;;;;;;;9.00;7.50;;;;;;;;2;261075411;261075411;-85
2022/03/10 14:55:24;;;;;;;;;9.50;8.00;;;;;;;;2;261077716;261077716;-84
2022/03/10 15:23:59;;;;;;;;;8.00;8.00;;;;;;;;2;261078925;261078925;-82
2022/03/10 15:42:33;;;;;;;;;12.50;12.50;;;;;;;;2;261083389;261083389;-85
2022/03/10 17:55:53;;;;;;;;;21.00;15.50;;;;;;;;2;261088853;261088853;-84
2022/03/10 18:04:53;;;;;;;;;11.50;11.50;;;;;;;;2;261084049;261084049;-84
2022/03/10 18:13:12;;;;;;;;;16.50;13.50;;;;;;;;2;261082640;261082640;-83
2022/03/10 18:22:12;;;;;;;;;18.00;14.00;;;;;;;;2;261083311;261083311;-83
2022/03/10 18:30:27;;;;;;;;;18.00;18.00;;;;;;;;2;261087015;261087015;-82
2022/03/10 18:39:29;;;;;;;;;15.50;15.50;;;;;;;;2;261081408;261081408;-83
2022/03/10 18:47:44;;;;;;;;;15.50;15.50;;;;;;;;2;261084948;261084948;-84
2022/03/10 18:56:44;;;;;;;;;16.00;16.00;;;;;;;;2;261076896;261076896;-83
2022/03/10 19:05:00;;;;;;;;;22.50;22.50;;;;;;;;2;261081869;261081869;-84
2022/03/10 19:14:00;;;;;;;;;23.50;19.50;;;;;;;;2;261086262;261086262;-84
2022/03/10 19:22:16;;;;;;;;;45.50;32.00;;;;;;;;2;261083859;261083859;-82
2022/03/10 19:31:17;;;;;;;;;15.50;15.50;;;;;;;;2;261081473;261081473;-83
2022/03/10 19:39:58;;;;;;;;;18.50;18.50;;;;;;;;2;261080248;261080248;-82
2022/03/10 19:48:56;;;;;;;;;23.00;23.00;;;;;;;;2;261079586;261079586;-82
2022/03/10 19:57:12;;;;;;;;;41.50;29.50;;;;;;;;2;261082550;261082550;-82
2022/03/10 20:06:12;;;;;;;;;17.00;17.00;;;;;;;;2;261086779;261086779;-82
2022/03/10 20:14:28;;;;;;;;;19.50;19.50;;;;;;;;2;261077443;261077443;-81
2022/03/10 20:23:35;;;;;;;;;14.50;14.50;;;;;;;;2;261080003;261080003;-85
2022/03/10 20:31:53;;;;;;;;;26.00;25.50;;;;;;;;2;261080074;261080074;-85
2022/03/10 20:41:22;;;;;;;;;;;;;;;;;;;;;
2022/03/10 20:50:09;;;;;;;;;20.00;20.00;;;;;;;;2;261112720;261112720;-83
2022/03/10 21:00:07;;;;;;;;;;;;;;;;;;;;;
2022/03/10 21:36:13;;;;;;;;;18.00;18.00;;;;;;;;2;261068184;261068184;-84
